createdAt,value
2022-08-23T00:02:27.583Z,5.07
2022-08-23T00:05:07.795Z,5.30
2022-08-23T00:07:39.155Z,4.37
2022-08-23T00:10:09.075Z,4.23
2022-08-23T00:12:37.328Z,4.03
2022-08-23T00:15:07.692Z,8.50
2022-08-23T00:17:39.287Z,8.17
2022-08-23T00:20:09.682Z,9.03
2022-08-23T00:22:38.458Z,4.10
2022-08-23T00:25:07.494Z,6.27
2022-08-23T00:27:35.602Z,10.00
2022-08-23T00:30:06.689Z,5.60
2022-08-23T00:32:38.551Z,6.20
2022-08-23T00:35:08.000Z,6.83
2022-08-23T00:37:36.062Z,4.80
2022-08-23T00:40:05.172Z,6.37
2022-08-23T00:42:56.703Z,6.53
2022-08-23T00:45:49.383Z,6.20
2022-08-23T00:48:18.787Z,6.00
2022-08-23T00:50:51.596Z,9.93
2022-08-23T00:53:22.983Z,4.70
2022-08-23T00:55:55.112Z,5.53
2022-08-23T00:58:23.926Z,7.47
2022-08-23T01:00:54.153Z,5.83
2022-08-23T01:03:25.305Z,5.90
2022-08-23T01:06:02.664Z,9.73
2022-08-23T01:08:33.638Z,5.73
2022-08-23T01:11:08.620Z,5.20
2022-08-23T01:13:41.209Z,7.93
2022-08-23T01:16:14.892Z,4.30
2022-08-23T01:18:44.971Z,6.83
2022-08-23T01:21:18.369Z,4.07
2022-08-23T01:23:53.143Z,11.90
2022-08-23T01:26:23.519Z,4.80
2022-08-23T01:28:51.995Z,5.70
2022-08-23T01:31:21.896Z,9.90
2022-08-23T01:33:55.076Z,8.13
2022-08-23T01:36:22.997Z,10.10
2022-08-23T01:38:52.347Z,5.27
2022-08-23T01:41:20.553Z,6.20
2022-08-23T01:43:48.710Z,6.93
2022-08-23T01:46:19.197Z,4.20
2022-08-23T01:48:48.681Z,5.23
2022-08-23T01:51:18.749Z,6.33
2022-08-23T01:53:47.432Z,5.60
2022-08-23T01:56:19.859Z,10.40
2022-08-23T01:58:55.744Z,9.73
2022-08-23T02:01:23.743Z,5.77
2022-08-23T02:04:01.200Z,6.07
2022-08-23T02:06:33.047Z,7.43
2022-08-23T02:09:04.494Z,6.03
2022-08-23T02:11:37.339Z,7.20
2022-08-23T02:14:07.569Z,5.00
2022-08-23T02:16:38.507Z,8.67
2022-08-23T02:19:09.076Z,5.30
2022-08-23T02:21:38.010Z,5.53
2022-08-23T02:24:07.257Z,6.87
2022-08-23T02:26:38.020Z,10.00
2022-08-23T02:29:06.866Z,5.90
2022-08-23T02:31:35.582Z,5.50
2022-08-23T02:36:49.626Z,7.60
2022-08-23T02:39:18.934Z,7.00
2022-08-23T02:41:48.457Z,4.70
2022-08-23T02:44:17.174Z,6.57
2022-08-23T02:46:45.572Z,5.90
2022-08-23T02:49:14.931Z,5.30
2022-08-23T02:51:43.183Z,5.80
2022-08-23T02:54:11.180Z,5.10
2022-08-23T02:56:39.288Z,5.07
2022-08-23T02:59:08.988Z,5.77
2022-08-23T03:01:39.274Z,12.43
2022-08-23T03:04:09.385Z,5.93
2022-08-23T03:06:37.935Z,7.80
2022-08-23T03:09:07.556Z,5.43
2022-08-23T03:11:35.723Z,9.77
2022-08-23T03:14:03.810Z,7.53
2022-08-23T03:16:33.128Z,9.13
2022-08-23T03:19:02.327Z,6.70
2022-08-23T03:21:31.303Z,10.03
2022-08-23T03:24:00.804Z,6.80
2022-08-23T03:26:28.806Z,8.57
2022-08-23T03:28:56.980Z,8.50
2022-08-23T03:31:25.410Z,10.17
2022-08-23T03:33:58.736Z,8.13
2022-08-23T03:36:27.895Z,8.70
2022-08-23T03:38:56.689Z,13.10
2022-08-23T03:41:25.076Z,11.53
2022-08-23T03:43:53.217Z,8.77
2022-08-23T03:46:23.963Z,10.50
2022-08-23T03:48:52.458Z,10.10
2022-08-23T03:51:22.601Z,18.07
2022-08-23T03:53:51.205Z,20.67
2022-08-23T03:56:26.891Z,7.10
2022-08-23T03:58:55.838Z,5.93
2022-08-23T04:01:28.345Z,5.80
2022-08-23T04:03:59.230Z,11.37
2022-08-23T04:06:29.295Z,6.90
2022-08-23T04:08:57.501Z,5.93
2022-08-23T04:11:26.424Z,9.77
2022-08-23T04:13:54.634Z,7.23
2022-08-23T04:16:22.663Z,7.30
2022-08-23T04:18:50.631Z,7.23
2022-08-23T04:21:22.511Z,12.90
2022-08-23T04:23:52.734Z,10.63
2022-08-23T04:26:21.465Z,9.27
2022-08-23T04:28:49.460Z,12.37
2022-08-23T04:31:18.852Z,6.80
2022-08-23T04:33:52.301Z,7.87
2022-08-23T04:36:20.805Z,8.27
2022-08-23T04:38:52.992Z,12.37
2022-08-23T04:41:38.163Z,9.50
2022-08-23T04:44:06.236Z,24.47
2022-08-23T04:46:34.253Z,16.23
2022-08-23T04:49:02.402Z,19.97
2022-08-23T04:51:30.377Z,10.47
2022-08-23T04:53:59.675Z,12.63
2022-08-23T04:56:28.399Z,12.93
2022-08-23T04:58:56.363Z,11.20
2022-08-23T05:01:24.780Z,8.30
2022-08-23T05:03:52.715Z,7.90
2022-08-23T05:06:20.725Z,6.40
2022-08-23T05:08:48.855Z,9.03
2022-08-23T05:11:20.593Z,11.27
2022-08-23T05:13:48.732Z,10.43
2022-08-23T05:16:17.081Z,4.60
2022-08-23T05:18:45.297Z,11.35
2022-08-23T05:21:16.691Z,6.53
2022-08-23T05:23:45.320Z,6.13
2022-08-23T05:26:21.371Z,6.65
2022-08-23T05:28:50.591Z,6.78
2022-08-23T05:31:20.996Z,5.28
2022-08-23T05:33:49.968Z,4.18
2022-08-23T05:36:19.744Z,4.20
2022-08-23T05:38:48.221Z,6.15
2022-08-23T05:41:17.687Z,7.85
2022-08-23T05:43:50.478Z,7.63
2022-08-23T05:46:20.219Z,5.13
2022-08-23T05:48:51.163Z,4.90
2022-08-23T05:51:22.499Z,5.82
2022-08-23T05:53:52.999Z,7.90
2022-08-23T05:56:23.734Z,4.78
2022-08-23T05:58:59.138Z,6.72
2022-08-23T06:01:29.372Z,13.73
2022-08-23T06:03:59.634Z,9.85
2022-08-23T06:06:36.869Z,7.32
2022-08-23T06:09:07.087Z,6.03
2022-08-23T06:11:36.649Z,9.52
2022-08-23T06:14:09.430Z,6.82
2022-08-23T06:16:40.365Z,10.75
2022-08-23T06:19:10.234Z,13.73
2022-08-23T06:21:39.547Z,5.53
2022-08-23T06:24:08.203Z,7.20
2022-08-23T06:26:38.816Z,7.28
2022-08-23T06:29:11.396Z,7.35
2022-08-23T06:31:48.878Z,10.20
2022-08-23T06:34:21.396Z,6.13
2022-08-23T06:36:52.609Z,5.70
2022-08-23T06:39:23.815Z,8.27
2022-08-23T06:41:53.091Z,6.25
2022-08-23T06:44:22.693Z,6.53
2022-08-23T06:46:50.984Z,7.28
2022-08-23T06:49:19.293Z,6.65
2022-08-23T06:51:50.994Z,6.05
2022-08-23T06:54:22.960Z,7.25
2022-08-23T06:56:55.236Z,10.75
2022-08-23T06:59:25.002Z,8.45
2022-08-23T07:01:55.517Z,13.02
2022-08-23T07:04:25.889Z,8.05
2022-08-23T07:06:54.187Z,6.75
2022-08-23T07:09:22.962Z,5.93
2022-08-23T07:11:51.434Z,6.97
2022-08-23T07:14:21.899Z,4.78
2022-08-23T07:16:53.073Z,6.32
2022-08-23T07:19:24.291Z,6.22
2022-08-23T07:21:58.990Z,5.20
2022-08-23T07:24:32.984Z,5.30
2022-08-23T07:27:06.988Z,5.20
2022-08-23T07:29:37.712Z,6.82
2022-08-23T07:32:08.052Z,7.05
2022-08-23T07:34:37.037Z,7.50
2022-08-23T07:37:11.499Z,5.28
2022-08-23T07:39:44.516Z,4.57
2022-08-23T07:42:23.613Z,8.95
2022-08-23T07:44:53.595Z,4.93
2022-08-23T07:47:23.820Z,6.22
2022-08-23T07:49:52.090Z,6.72
2022-08-23T07:52:20.302Z,4.63
2022-08-23T07:54:49.636Z,3.65
2022-08-23T07:57:18.298Z,3.90
2022-08-23T07:59:48.627Z,4.38
2022-08-23T08:02:17.292Z,4.13
2022-08-23T08:04:46.994Z,4.35
2022-08-23T08:07:20.768Z,4.40
2022-08-23T08:09:49.589Z,6.47
2022-08-23T08:12:18.046Z,7.43
2022-08-23T08:14:48.399Z,4.93
2022-08-23T08:17:18.126Z,7.13
2022-08-23T08:19:48.389Z,5.63
2022-08-23T08:22:17.286Z,5.32
2022-08-23T08:24:45.564Z,5.15
2022-08-23T08:27:13.851Z,4.32
2022-08-23T08:29:44.041Z,4.35
2022-08-23T08:32:14.164Z,5.65
2022-08-23T08:34:43.107Z,5.82
2022-08-23T08:37:12.901Z,5.97
2022-08-23T08:39:45.808Z,6.78
2022-08-23T08:42:54.960Z,3.10
2022-08-23T08:45:26.704Z,9.55
2022-08-23T08:48:00.875Z,4.45
2022-08-23T08:50:36.837Z,3.03
2022-08-23T08:53:10.993Z,5.80
2022-08-23T08:55:45.984Z,4.90
2022-08-23T08:58:18.211Z,5.65
2022-08-23T09:00:47.581Z,3.92
2022-08-23T09:03:20.496Z,5.50
2022-08-23T09:05:53.838Z,3.25
2022-08-23T09:08:40.145Z,3.05
2022-08-23T09:11:15.087Z,7.00
2022-08-23T09:14:06.307Z,3.97
2022-08-23T09:16:49.138Z,3.50
2022-08-23T09:19:21.488Z,7.30
2022-08-23T09:21:56.739Z,9.20
2022-08-23T09:24:27.971Z,3.05
2022-08-23T09:26:56.456Z,2.92
2022-08-23T09:29:31.348Z,2.33
2022-08-23T09:32:02.749Z,2.47
2022-08-23T09:34:42.568Z,2.20
2022-08-23T09:37:19.617Z,2.42
2022-08-23T09:39:51.454Z,2.28
2022-08-23T09:42:32.510Z,2.35
2022-08-23T09:45:01.372Z,1.90
2022-08-23T09:47:37.775Z,3.60
2022-08-23T09:50:24.429Z,2.28
2022-08-23T09:52:57.514Z,3.40
2022-08-23T09:55:35.351Z,3.63
2022-08-23T09:58:07.009Z,11.63
2022-08-23T10:00:38.332Z,3.85
2022-08-23T10:03:28.045Z,2.10
2022-08-23T10:05:57.980Z,5.28
2022-08-23T10:08:29.649Z,3.60
2022-08-23T10:11:17.238Z,4.55
2022-08-23T10:13:46.447Z,5.93
2022-08-23T10:16:22.166Z,5.63
2022-08-23T10:18:59.917Z,2.75
2022-08-23T10:21:39.117Z,4.30
2022-08-23T10:24:28.373Z,2.05
2022-08-23T10:27:47.330Z,5.53
2022-08-23T10:30:18.064Z,2.00
2022-08-23T10:32:54.688Z,6.10
2022-08-23T10:35:32.315Z,2.08
2022-08-23T10:38:19.764Z,2.15
2022-08-23T10:40:59.203Z,2.47
2022-08-23T10:43:38.643Z,4.47
2022-08-23T10:46:09.095Z,4.78
2022-08-23T10:48:49.375Z,2.58
2022-08-23T10:51:31.760Z,3.67
2022-08-23T10:54:06.585Z,3.40
2022-08-23T10:56:38.682Z,1.85
2022-08-23T10:59:15.468Z,3.53
2022-08-23T11:01:50.655Z,3.72
2022-08-23T11:04:28.337Z,4.30
2022-08-23T11:06:59.175Z,3.53
2022-08-23T11:09:53.362Z,2.42
2022-08-23T11:12:30.498Z,1.42
2022-08-23T11:15:31.798Z,1.65
2022-08-23T11:18:03.908Z,1.77
2022-08-23T11:21:08.158Z,1.70
2022-08-23T11:23:46.222Z,8.00
2022-08-23T11:26:56.323Z,1.65
2022-08-23T11:29:29.805Z,1.55
2022-08-23T11:32:04.491Z,1.60
2022-08-23T11:34:41.686Z,1.77
2022-08-23T11:37:30.075Z,3.10
2022-08-23T11:40:11.770Z,1.55
2022-08-23T11:42:53.984Z,4.10
2022-08-23T11:45:33.308Z,2.78
2022-08-23T11:48:20.310Z,2.90
2022-08-23T11:51:10.357Z,3.22
2022-08-23T11:53:56.093Z,1.17
2022-08-23T11:56:45.648Z,1.55
2022-08-23T11:59:38.466Z,3.10
2022-08-23T12:02:37.214Z,1.30
2022-08-23T12:05:21.511Z,2.35
2022-08-23T12:07:55.554Z,4.15
2022-08-23T12:11:05.305Z,1.92
2022-08-23T12:14:00.122Z,1.40
2022-08-23T12:16:38.455Z,1.70
2022-08-23T12:19:22.356Z,1.80
2022-08-23T12:21:57.705Z,3.72
2022-08-23T12:24:32.881Z,1.38
2022-08-23T12:27:22.921Z,2.35
2022-08-23T12:29:59.808Z,2.55
2022-08-23T12:32:36.356Z,1.98
2022-08-23T12:35:19.012Z,1.45
2022-08-23T12:38:01.539Z,3.17
2022-08-23T12:40:34.037Z,3.20
2022-08-23T12:43:09.989Z,3.50
2022-08-23T12:45:49.698Z,2.08
2022-08-23T12:48:20.621Z,2.10
2022-08-23T12:50:55.629Z,1.60
2022-08-23T12:53:31.430Z,2.58
2022-08-23T12:56:06.583Z,2.65
2022-08-23T12:58:40.652Z,1.98
2022-08-23T13:01:19.164Z,2.33
2022-08-23T13:03:50.789Z,4.72
2022-08-23T13:06:25.632Z,2.88
2022-08-23T13:09:00.390Z,2.67
2022-08-23T13:11:32.626Z,1.88
2022-08-23T13:14:03.366Z,1.23
2022-08-23T13:16:45.581Z,3.20
2022-08-23T13:19:20.862Z,4.40
2022-08-23T13:21:54.453Z,1.70
2022-08-23T13:24:39.193Z,1.60
2022-08-23T13:27:21.345Z,3.65
2022-08-23T13:29:56.265Z,1.70
2022-08-23T13:32:43.962Z,1.40
2022-08-23T13:35:36.616Z,3.85
2022-08-23T13:38:20.844Z,1.75
2022-08-23T13:40:57.410Z,3.33
2022-08-23T13:43:29.947Z,1.52
2022-08-23T13:46:01.767Z,1.48
2022-08-23T13:48:33.344Z,2.38
2022-08-23T13:51:29.446Z,3.10
2022-08-23T13:54:00.069Z,1.60
2022-08-23T13:56:32.836Z,1.30
2022-08-23T13:59:03.519Z,1.42
2022-08-23T14:01:57.066Z,1.70
2022-08-23T14:04:36.091Z,1.83
2022-08-23T14:07:06.518Z,3.05
2022-08-23T14:09:36.959Z,2.40
2022-08-23T14:12:13.867Z,7.32
2022-08-23T14:14:44.503Z,1.88
2022-08-23T14:17:16.470Z,1.17
2022-08-23T14:22:36.875Z,2.13
2022-08-23T14:25:06.780Z,1.98
2022-08-23T14:27:36.479Z,2.97
2022-08-23T14:30:06.148Z,1.40
2022-08-23T14:32:34.599Z,1.30
2022-08-23T14:35:05.987Z,1.35
2022-08-23T14:40:23.080Z,3.47
2022-08-23T14:42:53.056Z,0.93
2022-08-23T14:45:22.119Z,1.48
2022-08-23T14:47:52.777Z,2.50
2022-08-23T14:50:21.406Z,1.60
2022-08-23T14:52:52.900Z,1.90
2022-08-23T14:55:24.845Z,2.35
2022-08-23T14:57:55.150Z,1.60
2022-08-23T15:00:23.812Z,1.98
2022-08-23T15:02:52.243Z,2.33
2022-08-23T15:05:22.133Z,4.20
2022-08-23T15:07:53.619Z,2.08
2022-08-23T15:13:21.736Z,1.20
2022-08-23T15:15:56.076Z,1.58
2022-08-23T15:18:24.666Z,2.72
2022-08-23T15:20:56.517Z,3.33
2022-08-23T15:23:26.008Z,2.92
2022-08-23T15:26:03.373Z,4.22
2022-08-23T15:28:32.900Z,1.85
2022-08-23T15:31:00.916Z,1.67
2022-08-23T15:33:30.780Z,2.25
2022-08-23T15:36:01.855Z,2.88
2022-08-23T15:38:36.150Z,1.83
2022-08-23T15:41:10.785Z,2.08
2022-08-23T15:43:40.285Z,1.60
2022-08-23T15:46:10.388Z,3.85
2022-08-23T15:48:44.951Z,1.73
2022-08-23T15:51:13.227Z,2.05
2022-08-23T15:53:41.760Z,2.03
2022-08-23T15:56:16.324Z,1.80
2022-08-23T15:58:46.127Z,2.08
2022-08-23T16:01:14.254Z,1.50
2022-08-23T16:03:45.233Z,1.95
2022-08-23T16:06:19.319Z,1.48
2022-08-23T16:09:02.614Z,1.80
2022-08-23T16:11:31.903Z,2.05
2022-08-23T16:14:01.713Z,3.05
2022-08-23T16:16:32.090Z,2.78
2022-08-23T16:19:01.251Z,2.00
2022-08-23T16:21:30.771Z,4.60
2022-08-23T16:24:00.862Z,8.60
2022-08-23T16:26:34.905Z,2.30
2022-08-23T16:29:11.270Z,1.83
2022-08-23T16:31:40.023Z,1.88
2022-08-23T16:34:11.362Z,2.35
2022-08-23T16:36:42.467Z,1.90
2022-08-23T16:39:12.544Z,4.47
2022-08-23T16:41:40.507Z,2.38
2022-08-23T16:44:10.124Z,2.78
2022-08-23T16:46:41.342Z,3.03
2022-08-23T16:49:09.638Z,1.70
2022-08-23T16:51:38.015Z,6.53
2022-08-23T16:54:08.277Z,3.25
2022-08-23T16:56:37.829Z,2.22
2022-08-23T16:59:08.549Z,1.58
2022-08-23T17:01:48.422Z,1.98
2022-08-23T17:04:17.150Z,1.77
2022-08-23T17:06:46.367Z,1.83
2022-08-23T17:09:15.773Z,2.80
2022-08-23T17:11:45.312Z,1.40
2022-08-23T17:14:13.499Z,3.45
2022-08-23T17:16:44.016Z,1.30
2022-08-23T17:19:25.882Z,1.83
2022-08-23T17:21:54.237Z,1.77
2022-08-23T17:24:24.387Z,1.50
2022-08-23T17:26:52.538Z,1.50
2022-08-23T17:29:20.640Z,2.35
2022-08-23T17:31:48.718Z,2.17
2022-08-23T17:34:18.178Z,3.60
2022-08-23T17:36:48.851Z,1.95
2022-08-23T17:39:19.671Z,3.47
2022-08-23T17:41:47.713Z,8.48
2022-08-23T17:44:16.232Z,2.30
2022-08-23T17:46:46.195Z,7.97
2022-08-23T17:49:15.125Z,1.63
2022-08-23T17:51:45.586Z,1.42
2022-08-23T17:54:16.400Z,2.10
2022-08-23T17:56:50.154Z,1.50
2022-08-23T17:59:18.502Z,2.03
2022-08-23T18:01:46.662Z,2.00
2022-08-23T18:04:15.714Z,2.40
2022-08-23T18:06:45.717Z,1.87
2022-08-23T18:09:13.829Z,2.40
2022-08-23T18:11:42.021Z,1.83
2022-08-23T18:14:10.195Z,1.50
2022-08-23T18:16:38.592Z,2.50
2022-08-23T18:19:11.223Z,2.20
2022-08-23T18:21:41.579Z,1.40
2022-08-23T18:24:11.312Z,1.63
2022-08-23T18:26:57.481Z,2.50
2022-08-23T18:29:25.935Z,2.40
2022-08-23T18:31:54.045Z,2.23
2022-08-23T18:34:22.381Z,2.00
2022-08-23T18:36:50.777Z,1.60
2022-08-23T18:39:31.847Z,1.37
2022-08-23T18:42:00.879Z,2.30
2022-08-23T18:44:29.114Z,1.37
2022-08-23T18:46:57.311Z,3.60
2022-08-23T18:49:25.271Z,1.87
2022-08-23T18:51:53.377Z,3.47
2022-08-23T18:54:22.727Z,3.80
2022-08-23T18:56:50.666Z,2.10
2022-08-23T18:59:18.980Z,3.30
2022-08-23T19:01:47.556Z,1.30
2022-08-23T19:04:16.383Z,2.30
2022-08-23T19:06:45.396Z,1.80
2022-08-23T19:09:13.864Z,1.57
2022-08-23T19:11:44.341Z,2.10
2022-08-23T19:14:13.077Z,1.47
2022-08-23T19:16:47.201Z,1.57
2022-08-23T19:19:16.441Z,1.53
2022-08-23T19:21:44.708Z,3.20
2022-08-23T19:24:12.735Z,4.50
2022-08-23T19:26:44.394Z,3.53
2022-08-23T19:29:14.599Z,3.40
2022-08-23T19:31:46.644Z,3.97
2022-08-23T19:34:15.249Z,1.67
2022-08-23T19:36:46.992Z,2.20
2022-08-23T19:39:18.499Z,2.77
2022-08-23T19:41:46.998Z,2.20
2022-08-23T19:44:17.779Z,2.77
2022-08-23T19:46:45.962Z,2.40
2022-08-23T19:49:15.303Z,2.50
2022-08-23T19:51:43.833Z,1.70
2022-08-23T19:54:13.131Z,2.07
2022-08-23T19:56:43.422Z,1.97
2022-08-23T19:59:17.463Z,2.13
2022-08-23T20:01:45.572Z,3.07
2022-08-23T20:04:13.923Z,3.90
2022-08-23T20:06:41.893Z,6.60
2022-08-23T20:09:10.476Z,2.53
2022-08-23T20:11:39.173Z,2.37
2022-08-23T20:14:07.846Z,2.37
2022-08-23T20:16:38.218Z,4.50
2022-08-23T20:19:09.481Z,2.37
2022-08-23T20:21:38.106Z,1.60
2022-08-23T20:24:05.775Z,3.97
2022-08-23T20:26:36.019Z,2.20
2022-08-23T20:29:05.578Z,3.30
2022-08-23T20:31:36.998Z,3.07
2022-08-23T20:34:07.199Z,4.20
2022-08-23T20:36:35.565Z,3.60
2022-08-23T20:39:03.655Z,6.07
2022-08-23T20:41:33.623Z,7.37
2022-08-23T20:44:02.740Z,3.00
2022-08-23T20:46:31.340Z,4.07
2022-08-23T20:49:01.201Z,3.70
2022-08-23T20:51:30.007Z,4.93
2022-08-23T20:54:00.149Z,6.07
2022-08-23T20:56:29.087Z,4.83
2022-08-23T20:58:57.376Z,3.90
2022-08-23T21:01:26.081Z,2.77
2022-08-23T21:03:54.325Z,3.37
2022-08-23T21:06:26.053Z,2.83
2022-08-23T21:08:56.632Z,3.20
2022-08-23T21:11:26.119Z,5.90
2022-08-23T21:13:54.627Z,3.57
2022-08-23T21:16:23.229Z,4.80
2022-08-23T21:18:52.092Z,6.13
2022-08-23T21:21:25.330Z,4.27
2022-08-23T21:23:53.910Z,2.43
2022-08-23T21:26:23.388Z,2.10
2022-08-23T21:28:52.328Z,4.40
2022-08-23T21:31:22.521Z,2.23
2022-08-23T21:33:51.373Z,3.37
2022-08-23T21:36:20.455Z,4.37
2022-08-23T21:38:50.429Z,2.03
2022-08-23T21:41:36.252Z,2.70
2022-08-23T21:44:06.877Z,4.53
2022-08-23T21:46:35.692Z,6.00
2022-08-23T21:49:03.952Z,4.73
2022-08-23T21:51:32.185Z,6.67
2022-08-23T21:54:04.420Z,2.40
2022-08-23T21:56:32.703Z,2.60
2022-08-23T21:59:02.695Z,2.97
2022-08-23T22:01:34.210Z,3.90
2022-08-23T22:04:03.174Z,2.43
2022-08-23T22:06:31.226Z,2.13
2022-08-23T22:08:59.287Z,2.70
2022-08-23T22:11:29.097Z,4.23
2022-08-23T22:14:00.341Z,2.73
2022-08-23T22:16:28.374Z,4.53
2022-08-23T22:18:56.380Z,4.77
2022-08-23T22:21:24.254Z,3.67
2022-08-23T22:23:52.633Z,6.30
2022-08-23T22:26:20.891Z,3.63
2022-08-23T22:28:50.164Z,3.30
2022-08-23T22:31:18.116Z,3.83
2022-08-23T22:33:46.385Z,2.90
2022-08-23T22:36:17.592Z,2.67
2022-08-23T22:38:46.670Z,2.30
2022-08-23T22:41:17.540Z,3.37
2022-08-23T22:43:45.668Z,3.33
2022-08-23T22:46:15.061Z,3.10
2022-08-23T22:48:43.075Z,2.67
2022-08-23T22:51:13.196Z,3.30
2022-08-23T22:53:49.289Z,2.40
2022-08-23T22:56:21.759Z,3.33
2022-08-23T22:58:52.658Z,3.33
2022-08-23T23:01:24.457Z,2.63
2022-08-23T23:03:53.095Z,2.87
2022-08-23T23:06:21.784Z,3.60
2022-08-23T23:08:50.218Z,2.67
2022-08-23T23:11:19.619Z,3.47
2022-08-23T23:13:48.388Z,5.30
2022-08-23T23:16:19.331Z,4.53
2022-08-23T23:19:09.117Z,3.00
2022-08-23T23:21:37.527Z,3.37
2022-08-23T23:24:06.041Z,2.87
2022-08-23T23:26:33.946Z,3.77
2022-08-23T23:29:01.853Z,6.30
2022-08-23T23:31:29.747Z,3.03
2022-08-23T23:33:59.604Z,3.63
2022-08-23T23:36:27.688Z,6.23
2022-08-23T23:38:55.654Z,4.57
2022-08-23T23:41:23.895Z,2.80
2022-08-23T23:43:51.853Z,3.20
2022-08-23T23:46:21.804Z,3.97
2022-08-23T23:48:51.252Z,3.80
2022-08-23T23:51:24.100Z,5.43
2022-08-23T23:53:53.165Z,4.97
2022-08-23T23:56:22.679Z,5.80
2022-08-23T23:58:52.900Z,4.73
